Time;durP1;ratioP1;P1;durP2;ratioP2;P2;SDS_P1;SDS_P2;PMS_P1;PMS_P2;Temp;Humidity;BMP_temperature;BMP_pressure;BME280_temperature;BME280_humidity;BME280_pressure;Samples;Min_cycle;Max_cycle;Signal;HPM_P1;HPM_P2
2023/10/09 00:01:46;;;;;;;1.33;1.23;;;;;;;;;;5056957;28;20213;-64
2023/10/09 00:04:15;;;;;;;1.92;1.20;;;;;;;;;;5056509;28;20211;-64
2023/10/09 00:06:43;;;;;;;1.20;1.10;;;;;;;;;;5056477;28;20304;-64
2023/10/09 00:09:18;;;;;;;1.88;1.10;;;;;;;;;;5056615;28;20232;-64
2023/10/09 00:11:46;;;;;;;1.17;1.02;;;;;;;;;;5056821;28;20219;-64
2023/10/09 00:14:15;;;;;;;1.30;1.20;;;;;;;;;;5056220;28;20231;-64
2023/10/09 00:16:47;;;;;;;1.27;1.17;;;;;;;;;;5056890;28;20213;-64
2023/10/09 00:19:20;;;;;;;1.20;1.10;;;;;;;;;;5057299;28;20205;-64
2023/10/09 00:21:48;;;;;;;1.40;1.30;;;;;;;;;;5056802;28;20205;-64
2023/10/09 00:24:23;;;;;;;1.25;1.15;;;;;;;;;;5060707;28;20201;-64
2023/10/09 00:26:52;;;;;;;1.40;1.30;;;;;;;;;;5060296;28;20212;-64
2023/10/09 00:29:22;;;;;;;1.00;1.00;;;;;;;;;;5060955;28;20299;-64
2023/10/09 00:32:03;;;;;;;1.10;1.00;;;;;;;;;;5060237;28;20252;-64
2023/10/09 00:34:39;;;;;;;1.20;1.10;;;;;;;;;;5060435;28;20639;-64
2023/10/09 00:37:10;;;;;;;1.77;1.10;;;;;;;;;;5060382;28;20211;-64
2023/10/09 00:39:44;;;;;;;1.30;1.10;;;;;;;;;;5060146;28;20205;-64
2023/10/09 00:42:14;;;;;;;1.10;0.80;;;;;;;;;;5060420;28;20212;-64
2023/10/09 00:44:42;;;;;;;1.10;1.00;;;;;;;;;;5060737;28;20672;-64
2023/10/09 00:50:00;;;;;;;1.00;1.00;;;;;;;;;;5059686;28;20262;-64
2023/10/09 00:52:43;;;;;;;1.10;1.00;;;;;;;;;;5060094;28;20308;-64
2023/10/09 00:55:13;;;;;;;1.10;1.00;;;;;;;;;;5060336;28;20201;-64
2023/10/09 00:57:47;;;;;;;1.30;1.20;;;;;;;;;;5060149;28;20236;-64
2023/10/09 01:00:32;;;;;;;1.30;1.20;;;;;;;;;;5059825;28;20236;-64
2023/10/09 01:03:18;;;;;;;1.00;0.90;;;;;;;;;;5059599;28;20668;-64
2023/10/09 01:05:52;;;;;;;1.00;0.98;;;;;;;;;;5059253;28;20213;-64
2023/10/09 01:08:29;;;;;;;1.83;1.13;;;;;;;;;;5059062;28;20216;-64
2023/10/09 01:10:58;;;;;;;1.20;1.10;;;;;;;;;;5059720;28;20272;-64
2023/10/09 01:13:38;;;;;;;1.30;1.20;;;;;;;;;;5059743;28;20515;-64
2023/10/09 01:16:07;;;;;;;0.90;0.90;;;;;;;;;;5059708;28;20450;-64
2023/10/09 01:18:40;;;;;;;0.90;0.90;;;;;;;;;;5059572;28;20215;-64
2023/10/09 01:21:12;;;;;;;0.95;0.95;;;;;;;;;;5059920;28;20213;-64
2023/10/09 01:24:02;;;;;;;1.23;1.13;;;;;;;;;;5059616;28;20202;-64
2023/10/09 01:26:32;;;;;;;1.80;1.33;;;;;;;;;;5059503;28;20208;-64
2023/10/09 01:29:00;;;;;;;1.17;1.08;;;;;;;;;;5058958;28;20211;-64
2023/10/09 01:31:33;;;;;;;1.20;1.10;;;;;;;;;;5058967;28;20205;-64
2023/10/09 01:34:09;;;;;;;1.35;1.00;;;;;;;;;;5058813;28;20266;-64
2023/10/09 01:36:39;;;;;;;1.33;1.10;;;;;;;;;;5059496;28;20208;-64
2023/10/09 01:39:21;;;;;;;1.00;1.00;;;;;;;;;;5059060;28;20236;-64
2023/10/09 01:41:51;;;;;;;1.00;1.00;;;;;;;;;;5059261;28;20308;-64
2023/10/09 01:44:19;;;;;;;1.70;1.30;;;;;;;;;;5059005;28;20267;-64
2023/10/09 01:46:46;;;;;;;1.20;1.10;;;;;;;;;;5059162;28;20211;-64
2023/10/09 01:49:21;;;;;;;1.30;1.20;;;;;;;;;;5058803;28;20213;-64
2023/10/09 01:51:50;;;;;;;1.27;1.17;;;;;;;;;;5058786;28;20215;-64
2023/10/09 01:54:33;;;;;;;1.15;1.08;;;;;;;;;;5058690;28;20510;-64
2023/10/09 01:57:05;;;;;;;1.20;1.13;;;;;;;;;;5058557;28;20204;-64
2023/10/09 01:59:36;;;;;;;1.10;1.00;;;;;;;;;;5058617;28;20216;-64
2023/10/09 02:02:14;;;;;;;1.15;1.02;;;;;;;;;;5058614;28;20209;-64
2023/10/09 02:04:42;;;;;;;1.35;1.25;;;;;;;;;;5058381;28;20201;-64
2023/10/09 02:07:10;;;;;;;1.20;1.10;;;;;;;;;;5058392;28;20262;-64
2023/10/09 02:09:46;;;;;;;1.30;1.20;;;;;;;;;;5058395;28;20263;-64
2023/10/09 02:12:14;;;;;;;1.30;1.20;;;;;;;;;;5058290;28;20209;-64
2023/10/09 02:14:44;;;;;;;1.20;1.10;;;;;;;;;;5058264;28;20239;-64
2023/10/09 02:17:17;;;;;;;1.40;1.30;;;;;;;;;;5057955;28;20593;-64
2023/10/09 02:19:49;;;;;;;1.30;1.20;;;;;;;;;;5057982;28;20231;-64
2023/10/09 02:22:17;;;;;;;1.00;0.90;;;;;;;;;;5058393;28;20205;-64
2023/10/09 02:24:57;;;;;;;0.90;0.90;;;;;;;;;;5057442;28;20241;-64
2023/10/09 02:27:45;;;;;;;1.17;1.08;;;;;;;;;;5057776;28;20463;-64
2023/10/09 02:30:26;;;;;;;1.13;0.90;;;;;;;;;;5057972;28;20205;-64
2023/10/09 02:32:58;;;;;;;1.00;1.00;;;;;;;;;;5057885;28;20636;-64
2023/10/09 02:35:38;;;;;;;1.20;1.10;;;;;;;;;;5057857;28;20311;-64
2023/10/09 02:38:10;;;;;;;1.20;1.10;;;;;;;;;;5058052;28;20244;-64
2023/10/09 02:41:00;;;;;;;1.15;1.05;;;;;;;;;;5057838;28;20217;-64
2023/10/09 02:43:34;;;;;;;1.00;1.00;;;;;;;;;;5058297;28;20200;-64
2023/10/09 02:46:13;;;;;;;1.00;1.00;;;;;;;;;;5056743;28;20209;-64
2023/10/09 02:48:45;;;;;;;1.00;1.00;;;;;;;;;;5057581;28;20485;-64
2023/10/09 02:51:21;;;;;;;1.20;1.10;;;;;;;;;;5057495;28;20200;-64
2023/10/09 02:53:51;;;;;;;1.30;1.20;;;;;;;;;;5057603;28;20320;-64
2023/10/09 02:56:24;;;;;;;1.20;1.10;;;;;;;;;;5057618;28;20578;-64
2023/10/09 02:58:52;;;;;;;1.00;0.98;;;;;;;;;;5057397;28;20304;-64
2023/10/09 03:01:20;;;;;;;1.10;1.10;;;;;;;;;;5057483;28;20205;-64
2023/10/09 03:03:48;;;;;;;1.30;1.20;;;;;;;;;;5057430;28;20506;-64
2023/10/09 03:06:23;;;;;;;1.10;1.00;;;;;;;;;;5057582;28;20212;-64
2023/10/09 03:08:50;;;;;;;1.80;1.20;;;;;;;;;;5056759;28;20254;-64
2023/10/09 03:11:18;;;;;;;1.30;1.20;;;;;;;;;;5057085;28;20205;-64
2023/10/09 03:13:48;;;;;;;1.30;1.20;;;;;;;;;;5057448;28;20307;-64
2023/10/09 03:16:19;;;;;;;1.33;1.23;;;;;;;;;;5057537;28;20201;-64
2023/10/09 03:18:47;;;;;;;1.40;1.30;;;;;;;;;;5056530;28;20205;-64
2023/10/09 03:21:17;;;;;;;1.90;1.23;;;;;;;;;;5056642;28;20212;-64
2023/10/09 03:23:45;;;;;;;1.23;1.20;;;;;;;;;;5056245;28;20215;-64
2023/10/09 03:26:12;;;;;;;1.17;1.08;;;;;;;;;;5056795;28;20264;-64
2023/10/09 03:28:43;;;;;;;1.50;1.38;;;;;;;;;;5056713;28;20540;-64
2023/10/09 03:31:11;;;;;;;1.40;1.30;;;;;;;;;;5057048;28;20272;-64
2023/10/09 03:33:39;;;;;;;1.40;1.20;;;;;;;;;;5057117;28;20302;-64
2023/10/09 03:36:09;;;;;;;1.60;1.00;;;;;;;;;;5057075;28;20212;-64
2023/10/09 03:38:38;;;;;;;1.25;1.15;;;;;;;;;;5056340;28;20258;-64
2023/10/09 03:41:06;;;;;;;1.33;1.23;;;;;;;;;;5055694;28;20204;-64
2023/10/09 03:43:38;;;;;;;1.50;1.40;;;;;;;;;;5056644;28;20248;-64
2023/10/09 03:46:14;;;;;;;1.50;1.40;;;;;;;;;;5056093;28;20311;-64
2023/10/09 03:48:46;;;;;;;1.50;1.40;;;;;;;;;;5056741;28;20204;-64
2023/10/09 03:51:21;;;;;;;1.30;1.20;;;;;;;;;;5056630;28;20255;-64
2023/10/09 03:53:48;;;;;;;1.33;1.23;;;;;;;;;;5056621;28;20208;-64
2023/10/09 03:56:17;;;;;;;1.27;1.17;;;;;;;;;;5056328;28;20274;-64
2023/10/09 03:58:45;;;;;;;1.30;1.20;;;;;;;;;;5059837;28;20205;-64
2023/10/09 04:01:18;;;;;;;1.67;1.38;;;;;;;;;;5060389;28;20258;-64
2023/10/09 04:03:47;;;;;;;1.33;1.23;;;;;;;;;;5060295;28;20468;-64
2023/10/09 04:06:17;;;;;;;1.27;1.17;;;;;;;;;;5060760;28;20209;-64
2023/10/09 04:08:51;;;;;;;1.30;1.20;;;;;;;;;;5060594;28;20212;-64
2023/10/09 04:11:22;;;;;;;1.30;1.20;;;;;;;;;;5060524;28;20208;-64
2023/10/09 04:13:52;;;;;;;1.50;1.40;;;;;;;;;;5059989;28;20201;-64
2023/10/09 04:16:35;;;;;;;1.38;1.27;;;;;;;;;;5059275;28;20261;-64
2023/10/09 04:19:10;;;;;;;1.30;1.20;;;;;;;;;;5059812;28;20596;-64
2023/10/09 04:21:37;;;;;;;1.73;1.60;;;;;;;;;;5059387;28;20196;-64
2023/10/09 04:24:23;;;;;;;1.25;1.15;;;;;;;;;;5058917;28;20201;-64
2023/10/09 04:26:55;;;;;;;1.40;1.30;;;;;;;;;;5060002;28;20212;-64
2023/10/09 04:29:27;;;;;;;1.33;1.23;;;;;;;;;;5059726;28;20213;-64
2023/10/09 04:31:55;;;;;;;1.13;1.02;;;;;;;;;;5059744;28;20236;-64
2023/10/09 04:34:28;;;;;;;1.50;1.40;;;;;;;;;;5059297;28;20225;-64
2023/10/09 04:37:17;;;;;;;1.20;1.10;;;;;;;;;;5059329;28;20212;-64
2023/10/09 04:39:47;;;;;;;1.42;1.30;;;;;;;;;;5059432;28;20243;-64
2023/10/09 04:42:36;;;;;;;1.38;1.27;;;;;;;;;;5059323;28;20205;-64
2023/10/09 04:48:06;;;;;;;1.35;1.25;;;;;;;;;;5058214;28;20196;-64
2023/10/09 04:51:20;;;;;;;1.30;1.20;;;;;;;;;;5059013;28;20205;-64
2023/10/09 04:53:39;;;;;;;1.58;1.30;;;;;;;;;;5059154;28;20630;-64
2023/10/09 04:56:15;;;;;;;1.60;1.50;;;;;;;;;;5058566;28;20256;-64
2023/10/09 04:58:43;;;;;;;1.20;1.10;;;;;;;;;;5058850;28;20197;-64
2023/10/09 05:01:16;;;;;;;1.30;1.20;;;;;;;;;;5058737;28;20304;-64
2023/10/09 05:03:45;;;;;;;1.67;1.58;;;;;;;;;;5058356;28;20232;-64
2023/10/09 05:09:07;;;;;;;1.63;1.52;;;;;;;;;;5057867;28;20204;-64
2023/10/09 05:11:53;;;;;;;1.67;1.48;;;;;;;;;;5058426;28;20262;-64
2023/10/09 05:14:26;;;;;;;1.33;1.23;;;;;;;;;;5058764;28;20447;-64
2023/10/09 05:17:01;;;;;;;1.42;1.33;;;;;;;;;;5058314;28;20584;-64
2023/10/09 05:19:41;;;;;;;1.38;1.17;;;;;;;;;;5058272;28;20213;-64
2023/10/09 05:22:29;;;;;;;1.58;1.40;;;;;;;;;;5058060;28;20217;-64
2023/10/09 05:24:56;;;;;;;1.42;1.30;;;;;;;;;;5057913;28;20201;-64
2023/10/09 05:27:45;;;;;;;1.50;1.40;;;;;;;;;;5062793;28;20211;-64
2023/10/09 05:30:25;;;;;;;1.38;1.27;;;;;;;;;;5078765;28;20480;-64
2023/10/09 05:32:55;;;;;;;1.55;1.40;;;;;;;;;;5078510;28;20250;-64
2023/10/09 05:35:29;;;;;;;1.55;1.40;;;;;;;;;;5078764;28;20298;-64
2023/10/09 05:38:14;;;;;;;2.08;1.33;;;;;;;;;;5078543;28;20239;-64
2023/10/09 05:40:43;;;;;;;1.40;1.30;;;;;;;;;;5078536;28;20203;-64
2023/10/09 05:44:55;;;;;;;1.80;1.60;;;;;;;;;;5078414;28;20573;-64
2023/10/09 05:46:09;;;;;;;1.75;1.40;;;;;;;;;;5077844;28;20552;-64
2023/10/09 06:05:40;;;;;;;2.33;1.38;;;;;;;;;;5076735;28;20260;-64
2023/10/09 06:08:06;;;;;;;2.17;1.60;;;;;;;;;;5077140;28;20287;-64
2023/10/09 06:10:41;;;;;;;1.55;1.45;;;;;;;;;;5076797;28;20269;-64
2023/10/09 06:16:09;;;;;;;1.70;1.60;;;;;;;;;;5075520;28;20634;-64
2023/10/09 06:18:41;;;;;;;1.98;1.48;;;;;;;;;;5077198;28;20208;-64
2023/10/09 06:24:14;;;;;;;2.03;1.48;;;;;;;;;;5075598;28;20200;-64
2023/10/09 06:27:11;;;;;;;1.52;1.42;;;;;;;;;;5076860;28;20204;-64
2023/10/09 06:29:50;;;;;;;2.83;1.52;;;;;;;;;;5077260;28;20204;-64
2023/10/09 06:32:34;;;;;;;4.05;1.75;;;;;;;;;;5076057;28;20242;-64
2023/10/09 06:35:18;;;;;;;2.42;1.50;;;;;;;;;;5059297;28;20318;-64
2023/10/09 06:43:28;;;;;;;1.90;1.70;;;;;;;;;;4983037;28;20475;-64
2023/10/09 06:45:57;;;;;;;2.33;1.80;;;;;;;;;;5075600;28;20192;-64
2023/10/09 06:48:55;;;;;;;1.98;1.67;;;;;;;;;;5076532;28;20616;-64
2023/10/09 06:51:40;;;;;;;1.83;1.73;;;;;;;;;;5076162;28;20207;-64
2023/10/09 06:54:09;;;;;;;1.70;1.60;;;;;;;;;;5076689;28;20662;-64
2023/10/09 06:59:24;;;;;;;1.50;1.40;;;;;;;;;;5075769;28;20192;-64
2023/10/09 07:07:35;;;;;;;1.77;1.48;;;;;;;;;;5053311;28;20228;-63
2023/10/09 07:12:54;;;;;;;2.85;1.85;;;;;;;;;;5035302;28;20197;-63
2023/10/09 07:18:23;;;;;;;2.10;1.90;;;;;;;;;;5055593;28;20200;-63
2023/10/09 07:21:01;;;;;;;2.47;2.25;;;;;;;;;;5055780;28;20205;-63
2023/10/09 07:26:23;;;;;;;2.15;1.95;;;;;;;;;;5707596;22;20266;-62
2023/10/09 07:28:50;;;;;;;2.70;2.22;;;;;;;;;;5076792;28;20204;-62
2023/10/09 07:31:26;;;;;;;2.28;2.08;;;;;;;;;;5075730;28;20304;-62
2023/10/09 07:34:06;;;;;;;2.40;2.20;;;;;;;;;;5075728;28;20214;-62
2023/10/09 07:36:37;;;;;;;2.05;1.85;;;;;;;;;;5075037;28;20227;-63
2023/10/09 07:39:13;;;;;;;2.75;2.10;;;;;;;;;;5075356;28;20273;-63
2023/10/09 07:41:45;;;;;;;2.53;2.33;;;;;;;;;;5076382;28;20215;-63
2023/10/09 07:44:34;;;;;;;2.63;2.22;;;;;;;;;;5075199;28;20222;-63
2023/10/09 07:47:18;;;;;;;2.15;1.95;;;;;;;;;;5074411;28;20299;-63
2023/10/09 07:52:30;;;;;;;2.35;1.92;;;;;;;;;;5075060;28;20196;-63
2023/10/09 07:55:05;;;;;;;2.13;1.92;;;;;;;;;;5074566;28;20358;-63
2023/10/09 07:57:39;;;;;;;2.65;2.05;;;;;;;;;;5075011;28;20207;-63
2023/10/09 08:00:36;;;;;;;2.08;1.88;;;;;;;;;;5073798;28;20804;-63
2023/10/09 08:03:23;;;;;;;2.40;2.20;;;;;;;;;;5074231;28;20201;-63
2023/10/09 08:05:53;;;;;;;2.45;2.25;;;;;;;;;;5075175;28;20192;-63
2023/10/09 08:08:55;;;;;;;2.40;2.20;;;;;;;;;;5075178;28;20241;-63
2023/10/09 08:14:21;;;;;;;2.20;2.00;;;;;;;;;;5075216;28;20195;-63
2023/10/09 08:16:47;;;;;;;1.85;1.75;;;;;;;;;;5075962;28;20323;-63
2023/10/09 08:19:33;;;;;;;2.42;2.22;;;;;;;;;;5074861;28;20204;-63
2023/10/09 08:22:37;;;;;;;2.83;2.58;;;;;;;;;;5075294;28;20205;-63
2023/10/09 08:25:05;;;;;;;2.67;2.47;;;;;;;;;;5075066;28;20291;-63
2023/10/09 08:27:54;;;;;;;2.78;2.50;;;;;;;;;;5035067;28;20604;-63
2023/10/09 08:30:40;;;;;;;2.42;2.22;;;;;;;;;;5035324;28;20311;-63
2023/10/09 08:35:51;;;;;;;2.88;2.67;;;;;;;;;;5018479;28;20225;-63
2023/10/09 08:38:23;;;;;;;2.92;2.63;;;;;;;;;;5034987;28;20206;-63
2023/10/09 08:40:54;;;;;;;3.38;2.88;;;;;;;;;;5034941;28;20512;-63
2023/10/09 08:43:22;;;;;;;2.58;2.38;;;;;;;;;;5035184;28;20267;-63
2023/10/09 08:45:51;;;;;;;2.50;2.28;;;;;;;;;;5038484;28;20561;-63
2023/10/09 08:48:21;;;;;;;3.00;2.70;;;;;;;;;;5038456;28;20224;-63
2023/10/09 08:50:49;;;;;;;3.08;2.50;;;;;;;;;;5037808;28;20241;-63
2023/10/09 08:53:18;;;;;;;3.00;2.70;;;;;;;;;;5037764;28;20238;-63
2023/10/09 08:55:46;;;;;;;2.80;2.60;;;;;;;;;;5037637;28;20705;-63
2023/10/09 08:58:18;;;;;;;2.65;2.45;;;;;;;;;;5037689;28;20209;-63
2023/10/09 09:00:46;;;;;;;2.90;2.40;;;;;;;;;;5037434;28;20521;-63
2023/10/09 09:03:16;;;;;;;2.80;2.60;;;;;;;;;;5037312;28;20205;-63
2023/10/09 09:05:43;;;;;;;2.97;2.65;;;;;;;;;;5037666;28;20210;-63
2023/10/09 09:08:25;;;;;;;3.60;2.72;;;;;;;;;;5037787;28;20625;-63
2023/10/09 09:11:11;;;;;;;2.78;2.58;;;;;;;;;;5038142;28;20206;-63
2023/10/09 09:13:41;;;;;;;2.47;2.15;;;;;;;;;;5037596;28;20314;-63
2023/10/09 09:16:15;;;;;;;2.60;2.40;;;;;;;;;;5037298;28;20606;-63
2023/10/09 09:18:56;;;;;;;2.83;2.60;;;;;;;;;;5037634;28;20212;-63
2023/10/09 09:21:23;;;;;;;3.00;2.80;;;;;;;;;;5037378;28;20594;-63
2023/10/09 09:24:01;;;;;;;2.50;2.30;;;;;;;;;;5037087;28;20205;-63
2023/10/09 09:26:37;;;;;;;3.00;2.70;;;;;;;;;;5060200;28;20623;-63
2023/10/09 09:29:08;;;;;;;3.03;2.83;;;;;;;;;;5077363;28;20215;-63
2023/10/09 09:31:39;;;;;;;2.65;2.45;;;;;;;;;;5077639;28;20247;-63
2023/10/09 09:34:16;;;;;;;3.65;2.50;;;;;;;;;;5077596;28;20782;-63
2023/10/09 09:36:54;;;;;;;2.65;2.45;;;;;;;;;;5076990;28;20239;-63
2023/10/09 09:39:28;;;;;;;2.45;2.25;;;;;;;;;;5076632;28;20269;-63
2023/10/09 09:42:03;;;;;;;2.75;2.35;;;;;;;;;;5077175;28;20269;-63
2023/10/09 09:44:43;;;;;;;2.22;2.05;;;;;;;;;;5077843;28;20577;-63
2023/10/09 09:47:13;;;;;;;2.30;2.10;;;;;;;;;;5077510;28;20196;-63
2023/10/09 09:49:42;;;;;;;2.42;2.22;;;;;;;;;;5076454;28;20215;-63
2023/10/09 09:52:13;;;;;;;2.45;2.25;;;;;;;;;;5075814;28;20660;-63
2023/10/09 09:54:42;;;;;;;2.60;2.40;;;;;;;;;;5076257;28;20200;-63
2023/10/09 09:57:10;;;;;;;2.28;2.08;;;;;;;;;;5076745;28;20220;-64
2023/10/09 09:59:49;;;;;;;2.72;2.17;;;;;;;;;;5077438;28;20211;-62
2023/10/09 10:02:20;;;;;;;3.83;2.75;;;;;;;;;;5076151;28;20258;-61
2023/10/09 10:04:50;;;;;;;4.47;2.47;;;;;;;;;;5076331;28;20204;-61
2023/10/09 10:07:21;;;;;;;3.78;2.80;;;;;;;;;;5076237;28;20200;-61
2023/10/09 10:09:54;;;;;;;3.72;2.10;;;;;;;;;;5075694;28;20337;-61
2023/10/09 10:12:34;;;;;;;2.45;2.25;;;;;;;;;;5077022;28;20579;-61
2023/10/09 10:15:14;;;;;;;3.40;2.40;;;;;;;;;;5076612;28;20235;-61
2023/10/09 10:17:58;;;;;;;5.93;2.75;;;;;;;;;;5075914;28;20211;-61
2023/10/09 10:20:26;;;;;;;4.38;2.75;;;;;;;;;;5075732;28;20208;-61
2023/10/09 10:23:09;;;;;;;4.32;2.50;;;;;;;;;;5075671;28;20242;-61
2023/10/09 10:25:41;;;;;;;4.43;2.70;;;;;;;;;;5074414;28;20228;-61
2023/10/09 10:28:28;;;;;;;6.13;2.70;;;;;;;;;;5075204;28;20209;-61
2023/10/09 10:30:59;;;;;;;3.33;2.45;;;;;;;;;;5075346;28;20338;-61
2023/10/09 10:33:27;;;;;;;4.82;2.53;;;;;;;;;;5074458;28;20724;-61
2023/10/09 10:35:55;;;;;;;5.07;2.58;;;;;;;;;;5075235;28;20320;-67
2023/10/09 10:38:49;;;;;;;5.32;2.50;;;;;;;;;;5075678;28;20200;-61
2023/10/09 10:41:22;;;;;;;6.07;2.55;;;;;;;;;;5075769;28;20227;-61
2023/10/09 10:43:59;;;;;;;3.42;2.63;;;;;;;;;;5074992;28;20234;-61
2023/10/09 10:46:37;;;;;;;3.92;2.60;;;;;;;;;;5075350;28;20227;-61
2023/10/09 10:49:15;;;;;;;5.25;2.65;;;;;;;;;;5075859;28;20257;-61
2023/10/09 10:51:48;;;;;;;3.72;2.40;;;;;;;;;;5075453;28;20204;-61
2023/10/09 10:54:45;;;;;;;3.83;2.83;;;;;;;;;;5075616;28;20600;-61
2023/10/09 10:57:28;;;;;;;3.88;2.63;;;;;;;;;;5074589;28;20289;-61
2023/10/09 11:00:13;;;;;;;3.92;2.58;;;;;;;;;;5075068;28;20215;-62
2023/10/09 11:02:41;;;;;;;5.63;3.30;;;;;;;;;;5075249;28;20204;-62
2023/10/09 11:30:34;;;;;;;4.22;2.92;;;;;;;;;;5101639;27;1509905;-63
2023/10/09 11:33:05;;;;;;;4.30;2.75;;;;;;;;;;5133140;28;20221;-63
2023/10/09 11:35:34;;;;;;;4.32;2.78;;;;;;;;;;5133761;28;20489;-63
2023/10/09 11:38:20;;;;;;;3.45;2.75;;;;;;;;;;5133589;28;20254;-63
2023/10/09 11:41:05;;;;;;;3.97;2.80;;;;;;;;;;5132630;28;20210;-63
2023/10/09 11:43:51;;;;;;;3.55;2.50;;;;;;;;;;5134147;28;20494;-63
2023/10/09 11:46:48;;;;;;;3.08;2.78;;;;;;;;;;5133230;28;20288;-63
2023/10/09 11:49:34;;;;;;;4.68;3.00;;;;;;;;;;5133624;28;20243;-63
2023/10/09 11:54:56;;;;;;;3.30;2.90;;;;;;;;;;5132325;28;20201;-63
2023/10/09 11:57:30;;;;;;;3.17;2.60;;;;;;;;;;5133294;28;20259;-63
2023/10/09 11:59:58;;;;;;;3.70;3.00;;;;;;;;;;5132789;28;20261;-63
2023/10/09 12:02:27;;;;;;;3.15;2.80;;;;;;;;;;5132575;28;20650;-63
2023/10/09 12:04:56;;;;;;;3.65;3.00;;;;;;;;;;5132535;28;20213;-63
2023/10/09 12:07:27;;;;;;;4.32;2.83;;;;;;;;;;5133123;28;20203;-63
2023/10/09 12:09:56;;;;;;;2.92;2.63;;;;;;;;;;5133488;28;20205;-63
2023/10/09 12:12:26;;;;;;;5.93;2.55;;;;;;;;;;5133061;28;20601;-63
2023/10/09 12:14:54;;;;;;;2.90;2.42;;;;;;;;;;5132918;28;20267;-63
2023/10/09 12:17:25;;;;;;;3.33;2.83;;;;;;;;;;5132887;28;20218;-63
2023/10/09 12:19:56;;;;;;;3.60;2.63;;;;;;;;;;5132516;28;20258;-63
2023/10/09 12:22:26;;;;;;;3.33;2.90;;;;;;;;;;5132126;28;20203;-62
2023/10/09 12:24:54;;;;;;;3.92;2.90;;;;;;;;;;5132602;28;20206;-62
2023/10/09 12:27:22;;;;;;;4.13;2.70;;;;;;;;;;5132258;28;20614;-62
2023/10/09 12:29:49;;;;;;;3.00;2.70;;;;;;;;;;5127782;28;20234;-63
2023/10/09 12:32:19;;;;;;;5.25;3.00;;;;;;;;;;5119204;28;20222;-63
2023/10/09 12:34:50;;;;;;;4.40;3.00;;;;;;;;;;5118733;28;20205;-63
2023/10/09 12:37:20;;;;;;;4.68;2.72;;;;;;;;;;5119076;28;20206;-62
2023/10/09 12:39:48;;;;;;;4.30;3.05;;;;;;;;;;5118446;28;20285;-62
2023/10/09 12:42:16;;;;;;;2.90;2.60;;;;;;;;;;5118666;28;20210;-62
2023/10/09 12:44:44;;;;;;;2.80;2.60;;;;;;;;;;5117549;28;20268;-62
2023/10/09 12:47:12;;;;;;;4.72;2.80;;;;;;;;;;5117118;28;20198;-62
2023/10/09 12:49:40;;;;;;;6.10;2.95;;;;;;;;;;5118181;28;20284;-62
2023/10/09 12:52:15;;;;;;;5.72;3.05;;;;;;;;;;5118411;28;20198;-62
2023/10/09 12:54:46;;;;;;;4.97;3.17;;;;;;;;;;5117401;28;20202;-62
2023/10/09 12:57:14;;;;;;;4.05;2.95;;;;;;;;;;5117283;28;20203;-62
2023/10/09 12:59:45;;;;;;;3.88;2.95;;;;;;;;;;5117071;28;20261;-62
2023/10/09 13:02:13;;;;;;;3.35;2.80;;;;;;;;;;5117827;28;20203;-62
2023/10/09 13:04:42;;;;;;;3.35;2.92;;;;;;;;;;5117251;28;20274;-62
2023/10/09 13:07:09;;;;;;;3.67;2.95;;;;;;;;;;5118181;28;20226;-60
2023/10/09 13:09:42;;;;;;;4.15;2.67;;;;;;;;;;5117148;28;20191;-59
2023/10/09 13:12:17;;;;;;;4.28;2.92;;;;;;;;;;5117454;28;20222;-60
2023/10/09 13:14:49;;;;;;;5.43;3.25;;;;;;;;;;5117931;28;20583;-62
2023/10/09 13:17:17;;;;;;;4.65;2.90;;;;;;;;;;5117271;28;20203;-62
2023/10/09 13:19:44;;;;;;;5.30;2.80;;;;;;;;;;5116962;28;20713;-62
2023/10/09 13:22:13;;;;;;;4.00;3.03;;;;;;;;;;5117287;28;20210;-63
2023/10/09 13:24:41;;;;;;;3.80;2.90;;;;;;;;;;5117119;28;20844;-63
2023/10/09 13:27:10;;;;;;;3.92;3.03;;;;;;;;;;5117000;28;20205;-63
2023/10/09 13:29:41;;;;;;;3.10;2.70;;;;;;;;;;5116963;28;20827;-63
2023/10/09 13:32:14;;;;;;;2.90;2.50;;;;;;;;;;5115734;28;20198;-63
2023/10/09 13:34:44;;;;;;;3.28;2.80;;;;;;;;;;5115995;28;20264;-63
2023/10/09 13:37:13;;;;;;;3.90;3.00;;;;;;;;;;5115298;28;20234;-63
2023/10/09 13:39:52;;;;;;;3.95;2.75;;;;;;;;;;5115908;28;20521;-62
2023/10/09 13:42:24;;;;;;;3.30;2.60;;;;;;;;;;5115964;28;20203;-62
2023/10/09 13:44:55;;;;;;;3.17;2.78;;;;;;;;;;5116856;28;20229;-62
2023/10/09 13:47:29;;;;;;;3.85;2.70;;;;;;;;;;5117143;28;20239;-62
2023/10/09 13:49:57;;;;;;;3.88;2.88;;;;;;;;;;5117201;28;20222;-62
2023/10/09 13:52:24;;;;;;;3.85;2.67;;;;;;;;;;5116851;28;20203;-62
2023/10/09 13:54:53;;;;;;;3.13;2.58;;;;;;;;;;5116510;28;20576;-62
2023/10/09 13:57:30;;;;;;;3.28;2.58;;;;;;;;;;5116745;28;20203;-62
2023/10/09 14:00:00;;;;;;;3.90;2.78;;;;;;;;;;5115580;28;20572;-62
2023/10/09 14:02:28;;;;;;;2.88;2.47;;;;;;;;;;5115452;28;20268;-62
2023/10/09 14:04:57;;;;;;;4.13;2.95;;;;;;;;;;5115530;28;20195;-62
2023/10/09 14:07:25;;;;;;;3.28;2.97;;;;;;;;;;5115625;28;20297;-62
2023/10/09 14:10:07;;;;;;;3.20;2.80;;;;;;;;;;5115583;28;20199;-62
2023/10/09 14:12:39;;;;;;;4.15;3.00;;;;;;;;;;5115456;28;20732;-62
2023/10/09 14:15:11;;;;;;;3.03;2.72;;;;;;;;;;5115145;28;20202;-62
2023/10/09 14:17:42;;;;;;;4.07;3.35;;;;;;;;;;5115496;28;20199;-62
2023/10/09 14:22:52;;;;;;;2.55;2.35;;;;;;;;;;5136097;27;20193;-62
2023/10/09 14:25:21;;;;;;;3.05;2.75;;;;;;;;;;5135873;27;20241;-62
2023/10/09 14:27:49;;;;;;;2.70;2.50;;;;;;;;;;5135653;27;20209;-62
2023/10/09 14:30:30;;;;;;;2.80;2.60;;;;;;;;;;5118672;27;20288;-62
2023/10/09 14:32:57;;;;;;;2.90;2.60;;;;;;;;;;5116077;28;20241;-62
2023/10/09 14:35:30;;;;;;;3.13;2.70;;;;;;;;;;5115612;28;20293;-62
2023/10/09 14:37:57;;;;;;;3.95;2.75;;;;;;;;;;5115958;28;20199;-62
2023/10/09 14:40:31;;;;;;;2.63;2.42;;;;;;;;;;5115092;28;20635;-62
2023/10/09 14:42:59;;;;;;;2.75;2.55;;;;;;;;;;5114757;28;20245;-62
2023/10/09 14:45:28;;;;;;;2.92;2.60;;;;;;;;;;5115196;28;20210;-62
2023/10/09 14:47:56;;;;;;;3.55;3.00;;;;;;;;;;5114728;28;20214;-62
2023/10/09 14:50:24;;;;;;;2.50;2.30;;;;;;;;;;5115524;28;20297;-62
2023/10/09 14:52:51;;;;;;;2.53;2.33;;;;;;;;;;5114559;28;20199;-63
2023/10/09 14:55:20;;;;;;;2.97;2.65;;;;;;;;;;5114435;28;20198;-64
2023/10/09 14:57:49;;;;;;;3.05;2.67;;;;;;;;;;5115153;28;20230;-62
2023/10/09 15:00:22;;;;;;;3.55;2.90;;;;;;;;;;5114759;28;20272;-62
2023/10/09 15:02:52;;;;;;;2.75;2.55;;;;;;;;;;5114594;28;20203;-62
2023/10/09 15:05:22;;;;;;;2.97;2.58;;;;;;;;;;5114324;28;20702;-62
2023/10/09 15:07:50;;;;;;;2.88;2.50;;;;;;;;;;5114130;28;20723;-62
2023/10/09 15:10:18;;;;;;;3.28;2.60;;;;;;;;;;5114666;28;20323;-62
2023/10/09 15:12:48;;;;;;;2.88;2.55;;;;;;;;;;5115560;28;20472;-62
2023/10/09 15:15:16;;;;;;;3.47;2.83;;;;;;;;;;5115833;28;20205;-63
2023/10/09 15:17:47;;;;;;;3.17;2.85;;;;;;;;;;5114790;28;20599;-62
2023/10/09 15:20:16;;;;;;;3.28;2.90;;;;;;;;;;5114908;28;20322;-62
2023/10/09 15:22:44;;;;;;;2.78;2.45;;;;;;;;;;5115373;28;20202;-62
2023/10/09 15:25:14;;;;;;;2.60;2.40;;;;;;;;;;5114783;28;20213;-62
2023/10/09 15:27:41;;;;;;;2.90;2.70;;;;;;;;;;5114804;28;20205;-62
2023/10/09 15:30:13;;;;;;;3.67;2.85;;;;;;;;;;5114412;28;20230;-62
2023/10/09 15:32:41;;;;;;;2.70;2.50;;;;;;;;;;5114614;28;20210;-62
2023/10/09 15:35:12;;;;;;;2.90;2.70;;;;;;;;;;5115055;28;20595;-62
2023/10/09 15:37:42;;;;;;;2.63;2.42;;;;;;;;;;5114682;28;20715;-62
2023/10/09 15:40:13;;;;;;;2.60;2.40;;;;;;;;;;5114051;28;20230;-62
2023/10/09 15:42:41;;;;;;;2.63;2.38;;;;;;;;;;5115157;28;20203;-62
2023/10/09 15:45:10;;;;;;;3.08;2.78;;;;;;;;;;5114662;28;20203;-62
2023/10/09 15:47:37;;;;;;;2.70;2.50;;;;;;;;;;5115226;28;20211;-62
2023/10/09 15:50:08;;;;;;;2.80;2.58;;;;;;;;;;5115621;28;20245;-62
2023/10/09 15:52:37;;;;;;;3.58;2.78;;;;;;;;;;5114933;28;20211;-63
2023/10/09 15:55:13;;;;;;;2.60;2.40;;;;;;;;;;5115115;28;20258;-62
2023/10/09 15:57:41;;;;;;;3.08;2.67;;;;;;;;;;5115795;28;20199;-62
2023/10/09 16:00:13;;;;;;;2.97;2.67;;;;;;;;;;5114236;28;20262;-62
2023/10/09 16:02:42;;;;;;;2.70;2.50;;;;;;;;;;5115148;28;20199;-62
2023/10/09 16:05:11;;;;;;;3.17;2.67;;;;;;;;;;5116185;28;20232;-62
2023/10/09 16:07:39;;;;;;;2.90;2.60;;;;;;;;;;5119144;28;20645;-62
2023/10/09 16:10:10;;;;;;;2.63;2.42;;;;;;;;;;5119019;28;20238;-62
2023/10/09 16:12:38;;;;;;;2.72;2.53;;;;;;;;;;5118212;28;20214;-62
2023/10/09 16:15:06;;;;;;;2.80;2.60;;;;;;;;;;5118866;28;20217;-62
2023/10/09 16:17:34;;;;;;;3.03;2.72;;;;;;;;;;5118904;28;20199;-62
2023/10/09 16:20:01;;;;;;;2.85;2.55;;;;;;;;;;5118703;28;20246;-62
2023/10/09 16:22:29;;;;;;;3.30;2.80;;;;;;;;;;5118336;28;20214;-62
2023/10/09 16:24:57;;;;;;;3.53;2.47;;;;;;;;;;5118837;28;20592;-62
2023/10/09 16:27:27;;;;;;;2.80;2.60;;;;;;;;;;5117099;28;20207;-62
2023/10/09 16:29:55;;;;;;;3.13;2.83;;;;;;;;;;5117580;28;20219;-62
2023/10/09 16:32:23;;;;;;;2.78;2.47;;;;;;;;;;5117666;28;20242;-62
2023/10/09 16:34:51;;;;;;;2.85;2.65;;;;;;;;;;5117264;28;20233;-62
2023/10/09 16:37:22;;;;;;;2.70;2.45;;;;;;;;;;5117359;28;20203;-62
2023/10/09 16:39:50;;;;;;;2.60;2.35;;;;;;;;;;5117699;28;20225;-62
2023/10/09 16:42:18;;;;;;;2.40;2.20;;;;;;;;;;5118351;28;20203;-62
2023/10/09 16:44:47;;;;;;;2.50;2.30;;;;;;;;;;5118170;28;20584;-62
2023/10/09 16:47:16;;;;;;;2.88;2.33;;;;;;;;;;5117524;28;20615;-62
2023/10/09 16:49:48;;;;;;;2.45;2.25;;;;;;;;;;5117849;28;20734;-62
2023/10/09 16:52:18;;;;;;;2.50;2.30;;;;;;;;;;5118692;28;20210;-62